createdAt,value
2023-05-14T00:05:40.262Z,11.79
2023-05-14T00:11:01.053Z,11.67
2023-05-14T00:16:21.759Z,11.63
2023-05-14T00:21:42.683Z,11.55
2023-05-14T00:27:04.073Z,11.55
2023-05-14T00:32:24.902Z,11.51
2023-05-14T00:37:46.496Z,11.50
2023-05-14T00:43:07.886Z,11.56
2023-05-14T00:48:28.575Z,11.65
2023-05-14T00:53:49.182Z,11.72
2023-05-14T00:59:09.742Z,11.82
2023-05-14T01:04:30.655Z,11.82
2023-05-14T01:10:07.881Z,11.86
2023-05-14T01:15:30.901Z,11.79
2023-05-14T01:20:52.707Z,11.75
2023-05-14T01:26:13.057Z,11.83
2023-05-14T01:31:33.636Z,11.81
2023-05-14T01:36:54.141Z,11.78
2023-05-14T01:42:14.747Z,11.70
2023-05-14T01:47:35.608Z,11.62
2023-05-14T01:52:56.877Z,11.57
2023-05-14T01:58:17.831Z,11.56
2023-05-14T02:03:38.458Z,11.52
2023-05-14T02:08:59.182Z,11.52
2023-05-14T02:14:19.801Z,11.52
2023-05-14T02:19:40.534Z,11.54
2023-05-14T02:25:01.331Z,11.61
2023-05-14T02:30:22.205Z,11.58
2023-05-14T02:35:42.955Z,11.57
2023-05-14T02:41:03.589Z,11.59
2023-05-14T02:46:24.238Z,11.59
2023-05-14T02:51:44.716Z,11.60
2023-05-14T02:57:05.520Z,11.55
2023-05-14T03:02:26.141Z,11.56
2023-05-14T03:07:47.119Z,11.55
2023-05-14T03:13:07.746Z,11.59
2023-05-14T03:18:30.631Z,11.57
2023-05-14T03:23:52.582Z,11.60
2023-05-14T03:29:13.094Z,11.62
2023-05-14T03:34:34.418Z,11.61
2023-05-14T03:39:54.934Z,11.58
2023-05-14T03:45:15.485Z,11.48
2023-05-14T03:50:36.114Z,11.45
2023-05-14T03:55:56.806Z,11.49
2023-05-14T04:01:17.345Z,11.57
2023-05-14T04:06:38.005Z,11.59
2023-05-14T04:11:58.490Z,11.57
2023-05-14T04:17:19.339Z,11.63
2023-05-14T04:22:39.639Z,11.81
2023-05-14T04:28:00.497Z,11.83
2023-05-14T04:33:21.166Z,11.86
2023-05-14T04:38:41.824Z,11.80
2023-05-14T04:44:03.036Z,11.90
2023-05-14T04:49:23.575Z,12.05
2023-05-14T04:54:44.317Z,12.15
2023-05-14T05:00:09.665Z,12.28
2023-05-14T05:05:30.149Z,12.45
2023-05-14T05:10:50.685Z,12.55
2023-05-14T05:16:11.371Z,12.80
2023-05-14T05:21:31.971Z,13.05
2023-05-14T05:26:53.961Z,13.31
2023-05-14T05:32:14.296Z,13.32
2023-05-14T05:37:34.902Z,13.36
2023-05-14T05:42:55.820Z,13.39
2023-05-14T05:48:16.569Z,13.52
2023-05-14T05:53:36.830Z,14.13
2023-05-14T05:58:57.554Z,15.20
2023-05-14T06:04:17.984Z,16.53
2023-05-14T06:09:38.638Z,17.36
2023-05-14T06:14:59.389Z,18.10
2023-05-14T06:20:20.130Z,18.95
2023-05-14T06:25:41.038Z,18.91
2023-05-14T06:31:01.659Z,18.77
2023-05-14T06:36:22.226Z,18.91
2023-05-14T06:41:42.852Z,19.84
2023-05-14T06:47:11.273Z,20.14
2023-05-14T06:52:31.642Z,20.42
2023-05-14T06:57:52.296Z,19.97
2023-05-14T07:03:13.002Z,19.67
2023-05-14T07:08:33.687Z,19.20
2023-05-14T07:13:54.266Z,19.50
2023-05-14T07:19:15.218Z,20.06
2023-05-14T07:24:36.236Z,20.30
2023-05-14T07:29:56.973Z,21.56
2023-05-14T07:35:17.761Z,22.98
2023-05-14T07:40:38.462Z,24.05
2023-05-14T07:45:59.668Z,24.68
2023-05-14T07:51:20.200Z,24.39
2023-05-14T07:56:41.272Z,24.65
2023-05-14T08:02:02.232Z,25.38
2023-05-14T08:07:22.758Z,26.76
2023-05-14T08:12:43.560Z,26.63
2023-05-14T08:18:04.284Z,28.95
2023-05-14T08:23:24.984Z,25.13
2023-05-14T08:28:45.574Z,21.94
2023-05-14T08:34:06.248Z,23.82
2023-05-14T08:39:26.779Z,22.08
2023-05-14T08:44:53.717Z,20.42
2023-05-14T08:50:14.728Z,19.71
2023-05-14T08:55:35.281Z,20.49
2023-05-14T09:00:56.208Z,20.85
2023-05-14T09:06:17.532Z,23.20
2023-05-14T09:11:48.246Z,24.52
2023-05-14T09:17:09.019Z,24.32
2023-05-14T09:22:31.898Z,23.06
2023-05-14T09:27:55.377Z,22.04
2023-05-14T09:33:26.805Z,20.80
2023-05-14T09:38:47.223Z,19.77
2023-05-14T09:44:07.790Z,19.57
2023-05-14T09:49:29.584Z,19.94
2023-05-14T09:54:53.468Z,20.28
2023-05-14T10:00:16.102Z,20.81
2023-05-14T10:05:37.198Z,20.09
2023-05-14T10:10:59.021Z,20.10
2023-05-14T10:16:22.040Z,20.55
2023-05-14T10:21:44.777Z,20.28
2023-05-14T10:27:05.822Z,20.05
2023-05-14T10:32:27.197Z,19.61
2023-05-14T10:37:47.829Z,18.87
2023-05-14T10:43:09.367Z,18.86
2023-05-14T10:48:30.397Z,18.80
2023-05-14T10:53:51.385Z,20.07
2023-05-14T10:59:12.039Z,20.01
2023-05-14T11:04:32.610Z,19.24
2023-05-14T11:09:53.612Z,18.44
2023-05-14T11:15:16.030Z,17.56
2023-05-14T11:20:36.558Z,17.12
2023-05-14T11:25:57.518Z,17.30
2023-05-14T11:31:19.024Z,17.73
2023-05-14T11:36:39.590Z,18.21
2023-05-14T11:42:02.860Z,18.25
2023-05-14T11:47:23.764Z,18.19
2023-05-14T11:52:44.448Z,18.32
2023-05-14T11:58:04.949Z,18.09
2023-05-14T12:03:26.728Z,18.54
2023-05-14T12:08:47.740Z,19.11
2023-05-14T12:14:13.410Z,20.60
2023-05-14T12:19:34.371Z,21.46
2023-05-14T12:24:59.051Z,21.90
2023-05-14T12:30:21.639Z,21.59
2023-05-14T12:35:43.379Z,21.51
2023-05-14T12:41:04.063Z,21.32
2023-05-14T12:46:25.493Z,20.84
2023-05-14T12:51:47.112Z,20.53
2023-05-14T12:57:07.814Z,20.23
2023-05-14T13:02:28.727Z,20.38
2023-05-14T13:07:49.280Z,20.44
2023-05-14T13:13:11.559Z,20.18
2023-05-14T13:18:32.420Z,20.28
2023-05-14T13:23:53.705Z,20.74
2023-05-14T13:29:16.006Z,20.62
2023-05-14T13:34:36.762Z,19.97
2023-05-14T13:39:57.507Z,19.34
2023-05-14T13:45:18.648Z,18.93
2023-05-14T13:50:39.558Z,18.70
2023-05-14T13:56:01.769Z,18.28
2023-05-14T14:01:23.781Z,17.73
2023-05-14T14:06:44.721Z,17.38
2023-05-14T14:12:05.878Z,17.04
2023-05-14T14:17:26.634Z,16.85
2023-05-14T14:22:47.339Z,16.76
2023-05-14T14:28:08.185Z,16.53
2023-05-14T14:33:28.913Z,16.35
2023-05-14T14:38:49.459Z,16.37
2023-05-14T14:44:10.028Z,16.31
2023-05-14T14:49:32.194Z,16.20
2023-05-14T14:54:54.057Z,16.21
2023-05-14T15:00:15.614Z,16.12
2023-05-14T15:05:36.192Z,16.01
2023-05-14T15:10:56.999Z,15.82
2023-05-14T15:16:17.563Z,15.58
2023-05-14T15:21:38.050Z,15.49
2023-05-14T15:26:58.664Z,15.23
2023-05-14T15:32:19.279Z,15.07
2023-05-14T15:37:41.288Z,14.93
2023-05-14T15:43:02.132Z,14.89
2023-05-14T15:48:22.910Z,14.72
2023-05-14T15:53:43.537Z,14.69
2023-05-14T15:59:04.113Z,14.62
2023-05-14T16:04:25.126Z,14.58
2023-05-14T16:09:45.910Z,14.41
2023-05-14T16:15:07.799Z,14.37
2023-05-14T16:20:28.619Z,14.36
2023-05-14T16:25:49.194Z,14.15
2023-05-14T16:31:09.918Z,13.92
2023-05-14T16:36:31.244Z,13.85
2023-05-14T16:41:52.125Z,13.66
2023-05-14T16:47:13.084Z,13.52
2023-05-14T16:52:34.244Z,13.39
2023-05-14T16:57:55.365Z,13.18
2023-05-14T17:03:15.929Z,13.02
2023-05-14T17:08:37.067Z,12.90
2023-05-14T17:13:57.691Z,12.75
2023-05-14T17:19:18.435Z,12.67
2023-05-14T17:24:39.208Z,12.59
2023-05-14T17:30:01.180Z,12.53
2023-05-14T17:35:21.925Z,12.54
2023-05-14T17:40:42.933Z,12.52
2023-05-14T17:46:04.289Z,12.46
2023-05-14T17:51:25.223Z,12.44
2023-05-14T17:56:48.040Z,12.38
2023-05-14T18:02:08.913Z,12.33
2023-05-14T18:07:29.900Z,12.25
2023-05-14T18:12:50.744Z,12.21
2023-05-14T18:18:11.412Z,12.10
2023-05-14T18:23:32.080Z,12.00
2023-05-14T18:28:52.784Z,12.00
2023-05-14T18:34:13.405Z,11.95
2023-05-14T18:39:34.027Z,11.99
2023-05-14T18:44:54.725Z,11.93
2023-05-14T18:50:15.404Z,11.94
2023-05-14T18:55:37.030Z,12.03
2023-05-14T19:00:59.009Z,12.08
2023-05-14T19:06:19.884Z,11.97
2023-05-14T19:11:40.431Z,11.98
2023-05-14T19:17:01.581Z,11.99
2023-05-14T19:22:22.070Z,12.01
2023-05-14T19:27:43.178Z,11.95
2023-05-14T19:33:04.347Z,11.86
2023-05-14T19:38:24.957Z,11.79
2023-05-14T19:43:45.719Z,11.72
2023-05-14T19:49:06.425Z,11.81
2023-05-14T19:54:27.120Z,11.85
2023-05-14T19:59:47.875Z,11.89
2023-05-14T20:05:12.146Z,11.94
2023-05-14T20:10:32.807Z,11.88
2023-05-14T20:15:55.082Z,11.84
2023-05-14T20:21:16.171Z,11.74
2023-05-14T20:26:36.754Z,11.73
2023-05-14T20:31:57.451Z,11.73
2023-05-14T20:37:24.037Z,11.67
2023-05-14T20:42:44.910Z,11.68
2023-05-14T20:48:09.928Z,11.73
2023-05-14T20:53:31.129Z,11.86
2023-05-14T20:58:51.682Z,11.90
2023-05-14T21:04:12.495Z,11.88
2023-05-14T21:09:33.490Z,11.87
2023-05-14T21:14:54.219Z,11.89
2023-05-14T21:20:15.638Z,11.91
2023-05-14T21:25:36.355Z,11.86
2023-05-14T21:30:56.930Z,11.77
2023-05-14T21:36:17.516Z,11.69
2023-05-14T21:41:38.119Z,11.69
2023-05-14T21:46:59.135Z,11.70
2023-05-14T21:52:19.421Z,11.68
2023-05-14T21:57:40.702Z,11.66
2023-05-14T22:03:01.242Z,11.68
2023-05-14T22:08:21.887Z,11.58
2023-05-14T22:13:42.426Z,11.61
2023-05-14T22:19:04.465Z,11.56
2023-05-14T22:24:26.172Z,11.55
2023-05-14T22:29:46.639Z,11.59
2023-05-14T22:35:07.997Z,11.59
2023-05-14T22:40:29.372Z,11.54
2023-05-14T22:45:50.159Z,11.57
2023-05-14T22:51:10.739Z,11.57
2023-05-14T22:56:31.363Z,11.63
2023-05-14T23:01:52.048Z,11.71
2023-05-14T23:07:12.749Z,11.74
2023-05-14T23:12:33.297Z,11.80
2023-05-14T23:17:54.148Z,11.83
2023-05-14T23:23:14.674Z,11.84
2023-05-14T23:28:35.212Z,11.79
2023-05-14T23:33:56.837Z,11.72
2023-05-14T23:39:17.573Z,11.76
2023-05-14T23:44:38.336Z,11.74
2023-05-14T23:49:58.843Z,11.72
2023-05-14T23:55:19.674Z,11.67
